Time;durP1;ratioP1;P1;durP2;ratioP2;P2;SDS_P1;SDS_P2;PMS_P1;PMS_P2;Temp;Humidity;BMP_temperature;BMP_pressure;BME280_temperature;BME280_humidity;BME280_pressure;Samples;Min_cycle;Max_cycle;Signal;HPM_P1;HPM_P2
2022/04/02 00:00:44;;;;;;;0.68;0.50;;;;;;;11.77;87.95;95648.16;4869125;29;20040;-84
2022/04/02 00:03:10;;;;;;;0.70;0.50;;;;;;;11.73;88.29;95646.75;4879951;29;20103;-83
2022/04/02 00:05:35;;;;;;;3.22;1.30;;;;;;;12.03;85.44;95667.88;4880496;29;20037;-84
2022/04/02 00:08:01;;;;;;;0.57;0.35;;;;;;;12.12;84.38;95669.63;4880282;29;20040;-84
2022/04/02 00:10:27;;;;;;;4.30;0.55;;;;;;;12.07;84.83;95665.72;4879556;29;20033;-83
2022/04/02 00:12:55;;;;;;;0.38;0.38;;;;;;;12.04;83.91;95661.53;4895663;29;20028;-84
2022/04/02 00:15:22;;;;;;;1.38;1.17;;;;;;;11.91;85.18;95635.09;4880534;29;20043;-84
2022/04/02 00:17:48;;;;;;;0.40;0.40;;;;;;;11.92;85.50;95638.63;4868270;29;20112;-84
2022/04/02 00:20:13;;;;;;;0.20;0.20;;;;;;;11.94;84.05;95640.16;4884077;29;20135;-83
2022/04/02 00:23:35;;;;;;;0.73;0.73;;;;;;;12.09;83.86;95674.47;4899640;29;20037;-83
2022/04/02 00:25:24;;;;;;;0.52;0.52;;;;;;;12.13;83.62;95676.69;4886737;29;20035;-83
2022/04/02 00:27:50;;;;;;;0.35;0.35;;;;;;;12.20;83.89;95680.47;4884778;29;20040;-84
2022/04/02 00:30:16;;;;;;;0.65;0.65;;;;;;;12.03;83.85;95646.44;4883349;29;20408;-83
2022/04/02 00:32:41;;;;;;;0.00;0.00;;;;;;;12.25;82.99;95678.16;4883669;29;20093;-82
2022/04/02 00:35:08;;;;;;;0.15;0.13;;;;;;;12.18;82.57;95661.00;4883884;29;20056;-84
2022/04/02 00:37:34;;;;;;;2.58;1.13;;;;;;;12.33;82.27;95672.06;4868226;29;20056;-83
2022/04/02 00:40:00;;;;;;;0.20;0.20;;;;;;;12.33;81.54;95683.63;4883592;29;20508;-84
2022/04/02 00:42:26;;;;;;;0.30;0.25;;;;;;;12.35;80.97;95676.28;4883134;29;20036;-83
2022/04/02 00:44:51;;;;;;;0.70;0.70;;;;;;;12.40;81.05;95679.34;4879913;29;20437;-83
2022/04/02 00:47:17;;;;;;;0.38;0.38;;;;;;;12.38;80.82;95678.66;4880743;29;20050;-83
2022/04/02 00:49:43;;;;;;;3.78;0.22;;;;;;;12.52;79.78;95688.84;4882804;29;20058;-82
2022/04/02 00:52:08;;;;;;;0.30;0.30;;;;;;;12.70;78.82;95706.78;4883226;29;20489;-85
2022/04/02 00:54:34;;;;;;;1.27;0.68;;;;;;;12.71;78.72;95711.13;4883055;29;20474;-84
2022/04/02 00:57:00;;;;;;;0.32;0.32;;;;;;;12.57;78.82;95707.16;4867816;29;20033;-84
2022/04/02 00:59:26;;;;;;;0.20;0.20;;;;;;;12.63;78.75;95732.53;4883022;29;20101;-84
2022/04/02 01:01:52;;;;;;;0.52;0.52;;;;;;;12.47;79.00;95695.66;4867631;29;20040;-83
2022/04/02 01:04:18;;;;;;;0.70;0.47;;;;;;;12.55;78.42;95698.41;4882852;29;20040;-83
2022/04/02 01:06:44;;;;;;;0.10;0.10;;;;;;;12.57;78.84;95706.31;4883029;29;20432;-83
2022/04/02 01:09:10;;;;;;;0.00;0.00;;;;;;;12.50;77.95;95698.88;4882944;29;20508;-84
2022/04/02 01:11:37;;;;;;;0.73;0.68;;;;;;;12.67;78.08;95723.19;4883012;29;20223;-84
2022/04/02 01:14:03;;;;;;;0.45;0.35;;;;;;;12.48;78.21;95695.53;4867216;29;20032;-83
2022/04/02 01:16:30;;;;;;;0.10;0.10;;;;;;;12.57;77.47;95711.69;4898415;29;20033;-83
2022/04/02 01:18:55;;;;;;;0.20;0.20;;;;;;;12.49;78.51;95696.34;4882788;29;20115;-83
2022/04/02 01:21:21;;;;;;;0.22;0.22;;;;;;;12.53;78.29;95700.41;4882970;29;20482;-83
2022/04/02 01:23:47;;;;;;;0.47;0.47;;;;;;;12.39;78.50;95691.06;4882282;29;20077;-82
2022/04/02 01:26:12;;;;;;;0.40;0.40;;;;;;;12.32;79.07;95689.97;4882877;29;20056;-83
2022/04/02 01:28:40;;;;;;;0.30;0.30;;;;;;;12.35;79.21;95696.88;4881607;29;20035;-84
2022/04/02 01:31:07;;;;;;;0.00;0.00;;;;;;;12.29;79.06;95698.31;4882926;29;20028;-84
2022/04/02 01:33:33;;;;;;;3.20;0.38;;;;;;;12.53;79.97;95743.31;4898390;29;20020;-83
2022/04/02 01:36:00;;;;;;;0.30;0.30;;;;;;;12.33;82.94;95713.13;4882114;29;20571;-83
2022/04/02 01:38:32;;;;;;;0.30;0.30;;;;;;;12.48;78.07;95738.44;4882667;29;20039;-84
2022/04/02 01:40:58;;;;;;;0.20;0.20;;;;;;;12.50;74.97;95741.78;4882573;29;20051;-84
2022/04/02 01:43:24;;;;;;;0.45;0.45;;;;;;;12.38;75.07;95708.16;4881998;29;20497;-84
2022/04/02 01:45:57;;;;;;;0.17;0.17;;;;;;;12.63;75.50;95737.91;4882392;29;20036;-83
2022/04/02 01:48:23;;;;;;;0.40;0.40;;;;;;;12.68;75.25;95757.91;4866897;29;20032;-83
2022/04/02 01:50:50;;;;;;;0.32;0.20;;;;;;;12.60;73.72;95740.88;4866708;29;20096;-83
2022/04/02 01:53:16;;;;;;;1.60;0.82;;;;;;;12.53;75.50;95721.88;4882023;29;20039;-82
2022/04/02 01:55:41;;;;;;;1.67;1.02;;;;;;;12.40;77.08;95732.09;4882096;29;20032;-84
2022/04/02 01:58:07;;;;;;;1.27;0.95;;;;;;;12.47;79.22;95778.78;4881966;29;20040;-84
2022/04/02 02:00:33;;;;;;;1.10;1.00;;;;;;;12.27;80.60;95758.44;4882462;29;20036;-84
2022/04/02 02:02:58;;;;;;;0.30;0.30;;;;;;;12.14;80.82;95752.59;4882097;29;20035;-83
2022/04/02 02:05:26;;;;;;;0.47;0.47;;;;;;;12.12;78.27;95752.72;4881888;29;20047;-83
2022/04/02 02:07:53;;;;;;;0.35;0.20;;;;;;;12.13;71.94;95746.38;4866288;29;20457;-84
2022/04/02 02:10:19;;;;;;;0.20;0.20;;;;;;;12.09;73.26;95765.59;4866195;29;20028;-83
2022/04/02 02:12:46;;;;;;;0.20;0.20;;;;;;;12.20;77.59;95795.72;4882002;29;20032;-82
2022/04/02 02:15:18;;;;;;;0.35;0.35;;;;;;;11.85;81.74;95752.69;4882546;29;20039;-83
2022/04/02 02:17:45;;;;;;;0.00;0.00;;;;;;;11.73;74.19;95738.66;4867245;29;20075;-84
2022/04/02 02:20:13;;;;;;;0.20;0.20;;;;;;;11.85;75.87;95763.41;4881591;29;20061;-83
2022/04/02 02:22:45;;;;;;;0.10;0.10;;;;;;;11.70;78.34;95757.69;4866242;29;20482;-82
2022/04/02 02:25:12;;;;;;;0.22;0.22;;;;;;;11.78;78.24;95781.09;4881285;29;20493;-83
2022/04/02 02:27:39;;;;;;;0.35;0.35;;;;;;;11.71;80.33;95788.84;4881469;29;20112;-81
2022/04/02 02:30:06;;;;;;;0.05;0.05;;;;;;;11.70;79.97;95811.25;4881363;29;20032;-83
2022/04/02 02:32:36;;;;;;;2.65;0.95;;;;;;;11.66;75.37;95790.25;4865974;29;20501;-84
2022/04/02 02:38:04;;;;;;;0.20;0.20;;;;;;;11.72;71.76;95789.69;4883866;29;20536;-84
2022/04/02 02:40:30;;;;;;;0.40;0.40;;;;;;;11.82;73.30;95802.06;4880275;29;20044;-83
2022/04/02 02:42:56;;;;;;;0.13;0.13;;;;;;;11.70;76.88;95791.66;4881617;29;20420;-83
2022/04/02 02:45:21;;;;;;;0.10;0.10;;;;;;;11.70;75.49;95797.00;4881396;29;20071;-84
2022/04/02 02:47:47;;;;;;;0.20;0.20;;;;;;;11.44;75.42;95770.81;4881393;29;20041;-84
2022/04/02 02:50:12;;;;;;;1.02;0.52;;;;;;;11.50;78.64;95782.81;4880945;29;20032;-84
2022/04/02 02:52:38;;;;;;;0.10;0.10;;;;;;;11.61;74.53;95792.50;4881348;29;20466;-84
2022/04/02 02:55:04;;;;;;;0.10;0.10;;;;;;;11.80;69.03;95795.16;4881225;29;20063;-84
2022/04/02 02:57:37;;;;;;;0.35;0.20;;;;;;;11.98;67.87;95809.47;4881266;29;20037;-85
2022/04/02 03:00:04;;;;;;;0.00;0.00;;;;;;;12.07;69.00;95822.00;4880805;29;20465;-83
2022/04/02 03:02:29;;;;;;;0.40;0.40;;;;;;;12.00;70.04;95823.56;4880591;29;20032;-83
2022/04/02 03:04:55;;;;;;;16.15;0.30;;;;;;;12.00;69.10;95812.03;4880532;29;20033;-84
2022/04/02 03:07:21;;;;;;;0.15;0.15;;;;;;;12.00;70.10;95815.53;4880734;29;20076;-84
2022/04/02 03:09:49;;;;;;;0.20;0.20;;;;;;;11.89;69.30;95803.19;4881244;29;20112;-85
2022/04/02 03:12:14;;;;;;;0.63;0.32;;;;;;;11.87;68.56;95799.78;4881297;29;20568;-84
2022/04/02 03:14:40;;;;;;;0.10;0.10;;;;;;;11.95;67.25;95791.88;4880733;29;20040;-85
2022/04/02 03:17:06;;;;;;;0.20;0.20;;;;;;;12.15;67.55;95822.09;4880628;29;20032;-86
2022/04/02 03:19:31;;;;;;;0.00;0.00;;;;;;;12.12;65.90;95825.06;4880528;29;20028;-85
2022/04/02 03:21:57;;;;;;;0.00;0.00;;;;;;;12.12;67.62;95845.69;4880549;29;20088;-85
2022/04/02 03:24:22;;;;;;;0.00;0.00;;;;;;;12.11;67.77;95834.13;4880136;29;20036;-84
2022/04/02 03:26:48;;;;;;;0.10;0.10;;;;;;;11.98;67.82;95822.03;4880346;29;20139;-84
2022/04/02 03:29:13;;;;;;;1.88;0.88;;;;;;;12.02;67.06;95818.06;4880514;29;20111;-84
2022/04/02 03:31:39;;;;;;;0.00;0.00;;;;;;;12.00;67.75;95826.25;4880598;29;20049;-84
2022/04/02 03:34:05;;;;;;;0.20;0.20;;;;;;;12.07;65.38;95830.03;4880163;29;20409;-84
2022/04/02 03:36:30;;;;;;;0.20;0.20;;;;;;;12.19;64.53;95828.00;4880139;29;20102;-83
2022/04/02 03:38:56;;;;;;;1.40;0.30;;;;;;;12.38;63.14;95844.88;4880527;29;20032;-84
2022/04/02 03:41:23;;;;;;;0.80;0.65;;;;;;;12.34;64.90;95821.19;4880419;29;20039;-85
2022/04/02 03:43:51;;;;;;;0.10;0.10;;;;;;;12.44;65.71;95841.59;4879739;29;20417;-85
2022/04/02 03:49:01;;;;;;;0.35;0.35;;;;;;;12.36;64.60;95814.69;4882775;29;20120;-85
2022/04/02 03:51:26;;;;;;;0.20;0.20;;;;;;;12.35;65.32;95821.03;4879983;29;20040;-84
2022/04/02 03:53:52;;;;;;;0.20;0.20;;;;;;;12.36;65.15;95832.63;4880503;29;20029;-85
2022/04/02 03:56:17;;;;;;;0.10;0.10;;;;;;;12.40;63.33;95856.28;4880200;29;20076;-84
2022/04/02 03:58:43;;;;;;;0.30;0.30;;;;;;;12.30;63.82;95849.28;4880085;29;20084;-84
2022/04/02 04:01:09;;;;;;;0.20;0.20;;;;;;;12.13;67.48;95856.25;4881560;29;20366;-85
2022/04/02 04:03:34;;;;;;;0.47;0.47;;;;;;;11.98;67.34;95849.69;4879482;29;20417;-85
2022/04/02 04:06:00;;;;;;;0.10;0.10;;;;;;;11.79;68.25;95837.16;4879779;29;20941;-85
2022/04/02 04:08:26;;;;;;;0.10;0.10;;;;;;;11.62;69.53;95812.94;4864502;29;20077;-83
2022/04/02 04:10:51;;;;;;;0.43;0.43;;;;;;;11.51;72.40;95832.66;4880076;29;20123;-83
2022/04/02 04:13:17;;;;;;;1.10;0.98;;;;;;;11.40;72.44;95844.41;4880348;29;20479;-83
2022/04/02 04:15:43;;;;;;;0.60;0.55;;;;;;;11.58;72.96;95870.44;4880100;29;20036;-83
2022/04/02 04:18:08;;;;;;;0.13;0.13;;;;;;;11.27;73.15;95843.81;4880159;29;20044;-82
2022/04/02 04:20:35;;;;;;;0.88;0.63;;;;;;;11.37;71.66;95863.41;4880156;29;20135;-84
2022/04/02 04:23:00;;;;;;;0.20;0.20;;;;;;;11.31;75.54;95863.97;4880039;29;20838;-83
2022/04/02 04:25:26;;;;;;;0.82;0.40;;;;;;;11.35;75.59;95873.41;4879491;29;20048;-83
2022/04/02 04:27:51;;;;;;;0.40;0.40;;;;;;;11.20;78.80;95847.19;4879888;29;20044;-83
2022/04/02 04:30:17;;;;;;;0.38;0.38;;;;;;;11.35;75.47;95872.56;4879817;29;20051;-84
2022/04/02 04:32:43;;;;;;;2.72;1.55;;;;;;;11.42;75.75;95879.88;4879600;29;20028;-84
2022/04/02 04:35:08;;;;;;;1.75;0.75;;;;;;;11.30;75.41;95864.94;4879939;29;20056;-84
2022/04/02 04:37:40;;;;;;;2.80;1.52;;;;;;;11.18;77.17;95870.56;4878683;29;20067;-84
2022/04/02 04:40:08;;;;;;;3.28;1.60;;;;;;;11.09;76.01;95868.75;4879847;29;20225;-84
2022/04/02 04:42:34;;;;;;;6.70;1.70;;;;;;;11.26;75.41;95884.09;4880081;29;20040;-84
2022/04/02 04:45:05;;;;;;;1.10;0.80;;;;;;;11.51;75.80;95871.97;4892373;29;20124;-83
2022/04/02 04:47:31;;;;;;;15.60;7.63;;;;;;;11.82;77.03;95873.53;4878043;29;20592;-83
2022/04/02 04:49:57;;;;;;;19.35;9.20;;;;;;;12.17;75.93;95879.09;4883034;29;20068;-84
2022/04/02 04:52:22;;;;;;;17.58;9.55;;;;;;;12.57;72.87;95868.09;4882069;29;20051;-84
2022/04/02 04:54:48;;;;;;;37.42;16.35;;;;;;;12.54;69.91;95864.84;4880183;29;20025;-84
2022/04/02 04:57:13;;;;;;;33.20;14.02;;;;;;;12.45;69.71;95847.81;4880717;29;20068;-83
2022/04/02 04:59:39;;;;;;;22.38;9.90;;;;;;;12.82;68.13;95870.06;4865331;29;20036;-84
2022/04/02 05:02:05;;;;;;;23.88;11.95;;;;;;;13.15;67.28;95879.34;4882350;29;20531;-84
2022/04/02 05:04:30;;;;;;;11.50;5.57;;;;;;;13.63;63.16;95846.72;4867171;29;20398;-83
2022/04/02 05:06:57;;;;;;;11.10;5.43;;;;;;;13.96;60.69;95831.72;4884565;29;20033;-84
2022/04/02 05:09:22;;;;;;;12.77;7.55;;;;;;;13.81;59.79;95854.78;4883842;29;20040;-84
2022/04/02 05:11:48;;;;;;;11.77;5.43;;;;;;;14.16;57.33;95865.44;4899855;29;20128;-83
2022/04/02 05:14:14;;;;;;;8.90;5.07;;;;;;;15.02;55.96;95869.78;4895194;29;20508;-82
2022/04/02 05:16:39;;;;;;;15.52;7.68;;;;;;;15.28;55.39;95858.91;4900311;29;20044;-84
2022/04/02 05:19:07;;;;;;;7.32;3.13;;;;;;;15.50;51.68;95847.53;4900648;29;20430;-83
2022/04/02 05:21:32;;;;;;;12.10;5.43;;;;;;;15.44;53.24;95845.44;4899222;29;20469;-83
2022/04/02 05:23:58;;;;;;;10.30;4.55;;;;;;;15.97;52.73;95871.97;4883718;29;20033;-84
2022/04/02 05:26:24;;;;;;;20.95;4.32;;;;;;;16.72;50.09;95846.38;4858644;29;20084;-84
2022/04/02 05:28:56;;;;;;;6.65;3.30;;;;;;;17.64;48.28;95840.16;4865603;29;20482;-83
2022/04/02 05:31:23;;;;;;;5.80;3.15;;;;;;;18.64;45.36;95833.47;4864795;29;20493;-84
2022/04/02 05:33:48;;;;;;;27.58;12.23;;;;;;;19.66;44.23;95820.78;4864740;29;20045;-85
2022/04/02 05:36:14;;;;;;;10.90;5.80;;;;;;;20.62;41.44;95807.44;4866326;29;20094;-84
2022/04/02 05:38:40;;;;;;;6.28;3.20;;;;;;;21.79;38.11;95829.91;4863546;29;20076;-79
2022/04/02 05:41:05;;;;;;;17.45;10.27;;;;;;;23.38;35.56;95814.03;4863227;29;20040;-78
2022/04/02 05:43:31;;;;;;;15.35;7.82;;;;;;;24.53;32.24;95802.81;4847698;29;20033;-76
2022/04/02 05:45:57;;;;;;;8.80;5.00;;;;;;;25.43;31.74;95808.63;4862804;29;20032;-77
2022/04/02 05:48:24;;;;;;;11.50;5.47;;;;;;;26.32;30.22;95801.28;4847913;29;20056;-79
2022/04/02 05:50:50;;;;;;;10.55;3.65;;;;;;;27.21;28.87;95802.84;4847825;29;20469;-75
2022/04/02 05:53:16;;;;;;;7.60;3.10;;;;;;;28.18;27.15;95803.75;4847604;29;20036;-76
2022/04/02 05:55:42;;;;;;;4.35;2.35;;;;;;;28.34;26.54;95796.59;4863312;29;20025;-78
2022/04/02 05:58:11;;;;;;;3.95;2.40;;;;;;;28.37;26.60;95793.34;4846816;29;20033;-77
2022/04/02 06:00:36;;;;;;;5.47;2.30;;;;;;;28.91;24.77;95792.63;4860620;29;20116;-77
2022/04/02 06:03:03;;;;;;;8.40;4.07;;;;;;;29.67;24.74;95773.56;4861248;29;20477;-79
2022/04/02 06:05:28;;;;;;;10.85;3.88;;;;;;;30.17;24.64;95776.91;4861143;29;20464;-75
2022/04/02 06:07:57;;;;;;;2.97;1.92;;;;;;;29.44;24.11;95797.53;4860643;29;20067;-78
2022/04/02 06:10:23;;;;;;;3.08;2.13;;;;;;;29.47;23.25;95782.44;4860878;29;20025;-76
2022/04/02 06:12:50;;;;;;;3.20;1.90;;;;;;;28.72;24.02;95776.63;4864503;29;20065;-75
2022/04/02 06:15:16;;;;;;;3.53;1.90;;;;;;;27.71;25.07;95774.78;4861002;29;20053;-76
2022/04/02 06:17:41;;;;;;;7.00;4.10;;;;;;;27.21;26.39;95802.84;4860394;29;20585;-76
2022/04/02 06:20:08;;;;;;;5.10;3.08;;;;;;;26.84;26.82;95812.44;4860681;29;20036;-76
2022/04/02 06:22:34;;;;;;;2.33;1.70;;;;;;;25.48;27.48;95820.53;4845662;29;20036;-75
2022/04/02 06:25:00;;;;;;;3.83;2.20;;;;;;;24.76;29.04;95829.56;4861915;29;20566;-75
2022/04/02 06:27:26;;;;;;;2.83;1.30;;;;;;;24.18;29.32;95837.16;4878746;29;20048;-74
2022/04/02 06:29:51;;;;;;;4.60;1.40;;;;;;;24.15;29.41;95816.59;4880317;29;20037;-73
2022/04/02 06:32:20;;;;;;;1.67;1.45;;;;;;;24.48;29.50;95821.81;4878980;29;20070;-72
2022/04/02 06:34:46;;;;;;;2.05;1.30;;;;;;;24.23;29.68;95831.88;4895842;29;20489;-76
2022/04/02 06:37:11;;;;;;;1.77;1.00;;;;;;;23.76;29.75;95816.81;4880135;29;20036;-75
2022/04/02 06:39:37;;;;;;;1.65;0.80;;;;;;;23.18;30.75;95833.25;4892646;29;20044;-76
2022/04/02 06:42:03;;;;;;;2.70;1.10;;;;;;;23.98;30.38;95820.91;4895594;29;20513;-75
2022/04/02 06:44:29;;;;;;;1.02;0.90;;;;;;;23.36;30.75;95823.50;4879903;29;20034;-74
2022/04/02 06:46:56;;;;;;;2.45;0.90;;;;;;;23.57;29.39;95824.06;4895448;29;20445;-76
2022/04/02 06:49:22;;;;;;;4.68;0.90;;;;;;;24.52;29.01;95844.03;4880011;29;20497;-74
2022/04/02 06:51:48;;;;;;;2.30;1.20;;;;;;;24.97;28.44;95837.34;4895665;29;20089;-74
2022/04/02 06:54:13;;;;;;;3.10;1.73;;;;;;;25.68;27.17;95845.81;4895301;29;20509;-74
2022/04/02 06:56:39;;;;;;;7.47;2.30;;;;;;;26.01;28.69;95839.88;4895576;29;20020;-74
2022/04/02 06:59:05;;;;;;;2.05;0.82;;;;;;;26.56;25.96;95839.69;4895639;29;20124;-73
2022/04/02 07:01:30;;;;;;;4.78;1.40;;;;;;;27.58;24.92;95821.78;4895246;29;20449;-74
2022/04/02 07:03:56;;;;;;;3.42;0.80;;;;;;;27.64;24.31;95831.81;4895401;29;20070;-75
2022/04/02 07:06:21;;;;;;;8.50;0.95;;;;;;;27.51;25.43;95834.81;4894088;29;20502;-75
2022/04/02 07:08:47;;;;;;;3.10;0.93;;;;;;;27.29;24.12;95815.34;4892045;29;20089;-74
2022/04/02 07:11:13;;;;;;;4.75;0.85;;;;;;;26.82;25.30;95825.56;4895025;29;20028;-75
2022/04/02 07:13:38;;;;;;;1.75;0.60;;;;;;;25.19;26.68;95827.66;4895394;29;20024;-74
2022/04/02 07:16:04;;;;;;;2.67;0.63;;;;;;;24.91;26.75;95827.31;4895262;29;20075;-75
2022/04/02 07:18:30;;;;;;;6.13;1.60;;;;;;;25.06;27.41;95855.16;4894915;29;20035;-78
2022/04/02 07:20:58;;;;;;;2.88;0.80;;;;;;;25.65;26.77;95840.81;4879444;29;20032;-78
2022/04/02 07:23:24;;;;;;;10.48;3.08;;;;;;;24.89;29.24;95848.56;4894996;29;20063;-78
2022/04/02 07:25:50;;;;;;;8.60;1.38;;;;;;;25.84;26.85;95841.63;4894439;29;20549;-79
2022/04/02 07:28:16;;;;;;;9.18;1.08;;;;;;;24.48;28.17;95846.41;4878737;29;20059;-79
2022/04/02 07:30:41;;;;;;;3.72;0.63;;;;;;;23.35;29.23;95857.34;4894893;29;20115;-79
2022/04/02 07:33:07;;;;;;;1.98;1.20;;;;;;;23.98;29.35;95853.69;4879415;29;20036;-78
2022/04/02 07:36:08;;;;;;;5.82;1.00;;;;;;;25.40;26.44;95842.78;4863539;29;20028;-76
2022/04/02 07:38:40;;;;;;;2.05;0.70;;;;;;;26.95;25.42;95836.28;4864997;29;20507;-78
2022/04/02 07:45:05;;;;;;;1.83;1.30;;;;;;;21.95;31.10;95860.34;4826261;29;20121;-77
2022/04/02 07:48:13;;;;;;;2.40;1.00;;;;;;;21.50;33.33;95815.59;4822430;29;20077;-78
2022/04/02 07:50:43;;;;;;;2.35;1.00;;;;;;;22.80;30.58;95853.25;4824439;29;20185;-79
2022/04/02 07:53:18;;;;;;;1.27;0.47;;;;;;;21.37;31.98;95847.38;4808116;29;20053;-79
2022/04/02 07:55:46;;;;;;;3.33;1.50;;;;;;;22.65;30.80;95856.22;4828020;29;20026;-79
2022/04/02 07:58:14;;;;;;;2.55;1.27;;;;;;;24.28;27.78;95838.34;4847868;29;20044;-79
2022/04/02 08:00:39;;;;;;;4.13;1.90;;;;;;;26.12;26.22;95835.50;4863912;29;20035;-78
2022/04/02 08:03:10;;;;;;;3.25;0.90;;;;;;;26.08;27.20;95829.66;4894303;29;20029;-79
2022/04/02 08:05:39;;;;;;;5.40;0.80;;;;;;;26.47;27.44;95832.88;4878779;29;20036;-80
2022/04/02 08:08:09;;;;;;;10.23;1.55;;;;;;;25.99;25.82;95822.84;4878805;29;20043;-80
2022/04/02 08:10:44;;;;;;;5.80;1.45;;;;;;;24.37;27.78;95808.84;4894579;29;20028;-78
2022/04/02 08:13:17;;;;;;;5.00;1.30;;;;;;;23.40;28.81;95839.28;4894564;29;20048;-79
2022/04/02 08:15:42;;;;;;;7.65;1.48;;;;;;;24.82;29.44;95847.81;4878949;29;20068;-79
2022/04/02 08:18:13;;;;;;;8.27;0.90;;;;;;;25.78;25.37;95823.34;4894252;29;20037;-78
2022/04/02 08:20:45;;;;;;;0.82;0.80;;;;;;;27.71;23.67;95827.00;4894541;29;20036;-79
2022/04/02 08:23:11;;;;;;;2.25;1.10;;;;;;;25.29;25.03;95819.72;4873812;29;20589;-78
2022/04/02 08:25:39;;;;;;;2.53;0.77;;;;;;;23.57;26.94;95813.16;4892885;29;20177;-77
2022/04/02 08:28:07;;;;;;;2.75;1.33;;;;;;;22.63;28.22;95825.56;4893105;29;20096;-78
2022/04/02 08:30:48;;;;;;;4.20;1.00;;;;;;;21.12;30.17;95824.47;4875018;29;20028;-78
2022/04/02 08:33:32;;;;;;;3.47;1.02;;;;;;;20.50;31.46;95844.34;4878822;29;20028;-79
2022/04/02 08:36:16;;;;;;;5.93;1.63;;;;;;;20.22;32.40;95844.28;4894112;29;20028;-79
2022/04/02 08:39:07;;;;;;;1.60;1.00;;;;;;;20.02;31.86;95844.16;4894127;29;20064;-79
2022/04/02 08:42:09;;;;;;;1.20;0.88;;;;;;;20.27;31.78;95850.00;4840516;29;20105;-77
2022/04/02 08:44:53;;;;;;;3.88;1.65;;;;;;;20.78;31.09;95842.44;4899206;29;20101;-78
2022/04/02 08:47:40;;;;;;;2.85;1.20;;;;;;;20.85;30.36;95840.63;4881942;29;20445;-77
2022/04/02 08:50:11;;;;;;;7.25;2.38;;;;;;;21.26;29.77;95824.31;4882163;29;20032;-78
2022/04/02 08:52:55;;;;;;;2.72;1.40;;;;;;;23.58;26.91;95822.19;4866662;29;20060;-78
2022/04/02 08:55:23;;;;;;;3.30;1.10;;;;;;;25.12;25.07;95796.78;4864319;29;20179;-78
2022/04/02 08:58:14;;;;;;;1.42;0.85;;;;;;;26.13;24.04;95799.63;4898919;29;20052;-79
2022/04/02 09:01:10;;;;;;;4.35;1.60;;;;;;;27.23;23.50;95784.22;4897367;29;20453;-78
2022/04/02 09:03:54;;;;;;;3.53;0.80;;;;;;;28.48;21.05;95778.69;4881088;29;20120;-77
2022/04/02 09:06:25;;;;;;;4.32;1.08;;;;;;;28.62;21.02;95777.28;4898486;29;20021;-78
2022/04/02 09:08:51;;;;;;;4.15;0.73;;;;;;;29.20;19.98;95763.00;4898975;29;20096;-77
2022/04/02 09:11:23;;;;;;;3.03;0.95;;;;;;;29.74;20.23;95765.94;4881677;29;20077;-79
2022/04/02 09:13:59;;;;;;;1.17;0.85;;;;;;;28.80;20.44;95789.97;4897493;29;20025;-77
2022/04/02 09:16:50;;;;;;;1.52;0.63;;;;;;;27.26;21.78;95780.97;4881410;29;20398;-78
2022/04/02 09:19:33;;;;;;;5.68;0.85;;;;;;;26.69;22.51;95792.84;4881547;29;20029;-78
2022/04/02 09:22:23;;;;;;;0.77;0.68;;;;;;;27.20;21.98;95805.81;4898568;29;20037;-78
2022/04/02 09:25:20;;;;;;;2.92;1.10;;;;;;;27.39;21.38;95799.09;4876600;29;20035;-77
2022/04/02 09:28:08;;;;;;;3.53;1.20;;;;;;;25.40;22.87;95800.84;4879775;29;20167;-77
2022/04/02 09:31:07;;;;;;;2.80;0.90;;;;;;;23.73;24.96;95806.34;4879435;29;20029;-77
2022/04/02 09:34:00;;;;;;;4.65;1.40;;;;;;;21.59;27.57;95806.19;4862614;29;20091;-77
2022/04/02 09:36:47;;;;;;;1.65;0.70;;;;;;;22.80;26.51;95821.38;4879240;29;20029;-77
2022/04/02 09:39:34;;;;;;;0.73;0.70;;;;;;;22.58;26.27;95807.13;4879044;29;20580;-78
2022/04/02 09:42:03;;;;;;;6.22;1.40;;;;;;;22.97;27.05;95811.69;4862494;29;20097;-78
2022/04/02 09:45:09;;;;;;;1.92;0.80;;;;;;;24.27;25.34;95798.41;4879117;29;20492;-77
2022/04/02 09:48:02;;;;;;;1.38;0.60;;;;;;;23.62;24.58;95777.03;4838234;29;20049;-77
2022/04/02 09:50:31;;;;;;;1.85;1.02;;;;;;;22.91;25.86;95779.84;4877229;29;20036;-78
2022/04/02 09:53:26;;;;;;;4.38;1.33;;;;;;;22.44;26.78;95807.34;4862865;29;20069;-77
2022/04/02 09:56:08;;;;;;;1.55;1.00;;;;;;;22.17;27.17;95802.97;4877622;29;20025;-77
2022/04/02 09:58:58;;;;;;;2.20;1.00;;;;;;;21.83;26.97;95791.19;4877879;29;20037;-77
2022/04/02 10:02:12;;;;;;;1.55;0.75;;;;;;;23.51;25.68;95780.44;4876455;29;20041;-77
2022/04/02 10:04:43;;;;;;;2.75;1.08;;;;;;;24.32;24.77;95805.13;4863090;29;20052;-77
2022/04/02 10:07:23;;;;;;;8.93;0.90;;;;;;;25.45;23.05;95768.13;4874828;29;20060;-77
2022/04/02 10:09:53;;;;;;;3.63;1.00;;;;;;;25.72;23.12;95764.84;4878312;29;20033;-77
2022/04/02 10:12:20;;;;;;;2.40;0.70;;;;;;;26.82;21.78;95754.22;4846886;29;20025;-78
2022/04/02 10:14:45;;;;;;;3.30;1.02;;;;;;;27.31;21.68;95756.41;4878843;29;20599;-77
2022/04/02 10:17:12;;;;;;;1.63;0.90;;;;;;;28.92;20.82;95768.66;4846756;29;20053;-79
2022/04/02 10:19:40;;;;;;;3.33;1.27;;;;;;;28.95;20.88;95735.13;4872555;29;20041;-80
2022/04/02 10:22:10;;;;;;;3.42;1.77;;;;;;;28.11;21.28;95764.59;4862037;29;20395;-77
2022/04/02 10:24:46;;;;;;;3.38;1.40;;;;;;;28.84;20.87;95758.94;4861887;29;20196;-78
2022/04/02 10:27:13;;;;;;;1.27;1.17;;;;;;;30.20;19.49;95740.50;4858551;29;20117;-77
2022/04/02 10:29:52;;;;;;;1.88;1.05;;;;;;;29.72;20.43;95732.28;4861440;29;20086;-78
2022/04/02 10:32:33;;;;;;;4.30;1.10;;;;;;;29.89;19.76;95706.28;4879130;29;20072;-80
2022/04/02 10:34:59;;;;;;;7.13;2.17;;;;;;;28.55;20.57;95720.75;4846695;29;20032;-78
2022/04/02 10:37:56;;;;;;;0.80;0.60;;;;;;;27.95;19.95;95700.22;4878711;29;20029;-78
2022/04/02 10:40:27;;;;;;;3.00;1.42;;;;;;;26.74;21.45;95713.38;4862337;29;20045;-78
2022/04/02 10:42:58;;;;;;;3.80;1.45;;;;;;;26.75;22.30;95748.81;4862063;29;20413;-77
2022/04/02 10:45:28;;;;;;;1.40;1.05;;;;;;;26.06;22.36;95713.94;4846295;29;20037;-77
2022/04/02 10:48:11;;;;;;;2.97;1.13;;;;;;;26.42;22.53;95748.59;4861949;29;20072;-77
2022/04/02 10:50:38;;;;;;;0.80;0.80;;;;;;;27.33;21.85;95710.28;4858771;29;20036;-78
2022/04/02 10:53:05;;;;;;;4.85;1.60;;;;;;;26.99;22.37;95727.69;4858260;29;20490;-77
2022/04/02 10:55:31;;;;;;;3.33;1.40;;;;;;;26.67;22.83;95712.69;4858299;29;20101;-78
2022/04/02 10:58:00;;;;;;;3.85;1.80;;;;;;;27.00;22.01;95696.44;4860265;29;20112;-78
2022/04/02 11:00:27;;;;;;;2.15;1.55;;;;;;;27.14;21.82;95692.31;4861174;29;20508;-78
2022/04/02 11:03:04;;;;;;;4.10;2.70;;;;;;;27.24;21.39;95697.19;4860391;29;20032;-78
2022/04/02 11:05:34;;;;;;;2.25;1.40;;;;;;;28.32;21.30;95697.00;4861470;29;20458;-78
2022/04/02 11:08:05;;;;;;;2.83;1.10;;;;;;;28.57;20.05;95708.41;4860912;29;20032;-77
2022/04/02 11:10:33;;;;;;;;;;;;;;;27.19;21.21;95695.19;4861907;29;20525;-79
2022/04/02 11:13:00;;;;;;;3.47;1.20;;;;;;;26.72;22.48;95699.91;4845322;29;19915;-78
2022/04/02 11:15:31;;;;;;;3.17;1.17;;;;;;;25.92;23.07;95708.91;4861189;29;20060;-78
2022/04/02 11:17:59;;;;;;;3.03;1.20;;;;;;;25.51;23.89;95718.78;4875054;29;20044;-77
2022/04/02 11:20:26;;;;;;;1.20;1.10;;;;;;;26.07;22.93;95712.03;4857986;29;20117;-77
2022/04/02 11:22:52;;;;;;;1.48;1.10;;;;;;;27.88;21.30;95710.53;4864378;29;20037;-79
2022/04/02 11:25:28;;;;;;;5.88;1.83;;;;;;;28.56;21.11;95712.22;4877694;29;20040;-79
2022/04/02 11:28:18;;;;;;;1.95;1.48;;;;;;;28.09;21.30;95699.91;4864144;29;20040;-77
2022/04/02 11:31:12;;;;;;;3.33;0.90;;;;;;;28.20;20.60;95688.84;4882022;29;20101;-77
2022/04/02 11:33:52;;;;;;;1.48;0.93;;;;;;;28.06;20.85;95689.41;4880852;29;20620;-78
2022/04/02 11:36:23;;;;;;;0.70;0.65;;;;;;;27.82;20.13;95669.47;4880207;29;20060;-78
2022/04/02 11:38:55;;;;;;;4.43;1.20;;;;;;;26.72;21.54;95715.53;4880063;29;20432;-78
2022/04/02 11:41:36;;;;;;;4.78;0.68;;;;;;;24.45;22.76;95665.59;4879919;29;20493;-78
2022/04/02 11:44:07;;;;;;;1.67;1.00;;;;;;;23.19;24.50;95690.31;4879361;29;20036;-78
2022/04/02 11:47:13;;;;;;;2.00;1.10;;;;;;;22.65;25.55;95701.69;4879209;29;20040;-78
2022/04/02 11:49:42;;;;;;;4.88;0.95;;;;;;;21.59;26.97;95708.22;4882026;29;20394;-78
2022/04/02 11:52:17;;;;;;;7.25;1.00;;;;;;;20.91;27.82;95709.34;4878805;29;20461;-77
2022/04/02 11:54:49;;;;;;;1.60;1.20;;;;;;;20.34;28.87;95741.44;4879473;29;20016;-78